createdAt,value
2019-05-30T00:00:17.404Z,51.62
2019-05-30T00:02:42.529Z,50.82
2019-05-30T00:05:12.091Z,50.87
2019-05-30T00:07:42.417Z,50.85
2019-05-30T00:10:11.907Z,50.90
2019-05-30T00:12:41.244Z,51.43
2019-05-30T00:15:11.254Z,51.47
2019-05-30T00:17:40.580Z,51.73
2019-05-30T00:20:10.182Z,51.60
2019-05-30T00:22:39.881Z,51.53
2019-05-30T00:25:10.662Z,52.03
2019-05-30T00:27:40.330Z,51.81
2019-05-30T00:30:23.801Z,52.23
2019-05-30T00:32:41.829Z,52.18
2019-05-30T00:35:11.407Z,52.26
2019-05-30T00:37:40.738Z,52.32
2019-05-30T00:40:10.505Z,52.47
2019-05-30T00:42:39.831Z,53.37
2019-05-30T00:45:20.453Z,53.91
2019-05-30T00:47:40.342Z,53.94
2019-05-30T00:50:09.811Z,53.06
2019-05-30T00:52:39.154Z,52.90
2019-05-30T00:55:08.785Z,53.12
2019-05-30T00:57:38.123Z,53.97
2019-05-30T01:00:08.797Z,53.58
2019-05-30T01:02:38.126Z,53.52
2019-05-30T01:05:08.727Z,53.47
2019-05-30T01:07:38.049Z,53.70
2019-05-30T01:10:08.231Z,53.61
2019-05-30T01:12:37.724Z,53.53
2019-05-30T01:15:08.573Z,53.86
2019-05-30T01:17:37.911Z,53.95
2019-05-30T01:20:07.909Z,54.54
2019-05-30T01:22:37.554Z,55.68
2019-05-30T01:25:07.999Z,55.35
2019-05-30T01:30:11.245Z,55.01
2019-05-30T01:32:40.597Z,54.83
2019-05-30T01:35:11.129Z,54.96
2019-05-30T01:37:40.460Z,55.22
2019-05-30T01:40:10.834Z,55.09
2019-05-30T01:42:40.180Z,55.05
2019-05-30T01:45:09.738Z,55.05
2019-05-30T01:47:39.062Z,55.00
2019-05-30T01:50:11.170Z,55.06
2019-05-30T01:52:41.473Z,55.49
2019-05-30T01:55:11.537Z,55.50
2019-05-30T01:57:40.865Z,55.65
2019-05-30T02:00:20.560Z,55.54
2019-05-30T02:02:44.100Z,55.38
2019-05-30T02:05:15.616Z,55.43
2019-05-30T02:07:44.950Z,55.91
2019-05-30T02:10:15.727Z,55.96
2019-05-30T02:12:45.051Z,55.85
2019-05-30T02:15:14.818Z,55.95
2019-05-30T02:17:44.148Z,55.73
2019-05-30T02:20:13.829Z,55.99
2019-05-30T02:22:43.164Z,56.01
2019-05-30T02:25:12.829Z,56.11
2019-05-30T02:27:42.158Z,55.87
2019-05-30T02:30:14.877Z,55.95
2019-05-30T02:32:42.946Z,55.80
2019-05-30T02:35:12.967Z,56.02
2019-05-30T02:37:42.349Z,55.88
2019-05-30T02:40:14.914Z,55.90
2019-05-30T02:42:43.027Z,56.00
2019-05-30T02:45:12.790Z,56.09
2019-05-30T02:47:42.180Z,56.00
2019-05-30T02:50:14.050Z,55.80
2019-05-30T02:52:43.341Z,56.22
2019-05-30T02:55:13.732Z,56.07
2019-05-30T02:57:43.316Z,56.48
2019-05-30T03:00:17.741Z,57.04
2019-05-30T03:02:44.922Z,58.29
2019-05-30T03:05:15.321Z,59.10
2019-05-30T03:07:44.967Z,58.41
2019-05-30T03:10:15.384Z,58.27
2019-05-30T03:12:45.076Z,58.67
2019-05-30T03:15:15.729Z,57.97
2019-05-30T03:17:45.368Z,57.72
2019-05-30T03:20:22.906Z,58.59
2019-05-30T03:22:47.807Z,59.58
2019-05-30T03:25:17.511Z,59.65
2019-05-30T03:27:47.023Z,60.57
2019-05-30T03:30:26.747Z,61.10
2019-05-30T03:33:05.583Z,61.68
2019-05-30T03:35:28.746Z,61.26
2019-05-30T03:37:52.053Z,61.84
2019-05-30T03:40:23.522Z,61.04
2019-05-30T03:42:52.419Z,60.97
2019-05-30T03:45:23.682Z,60.78
2019-05-30T03:47:56.061Z,60.43
2019-05-30T03:50:28.270Z,60.52
2019-05-30T03:52:58.345Z,59.60
2019-05-30T03:55:29.612Z,59.88
2019-05-30T03:58:09.947Z,59.67
2019-05-30T04:00:45.386Z,59.40
2019-05-30T04:03:38.792Z,59.64
2019-05-30T04:06:15.903Z,59.66
2019-05-30T04:08:47.642Z,59.84
2019-05-30T04:11:19.992Z,59.44
2019-05-30T04:13:52.382Z,59.51
2019-05-30T04:16:21.703Z,59.26
2019-05-30T04:18:51.041Z,58.95
2019-05-30T04:21:21.687Z,59.11
2019-05-30T04:23:51.269Z,58.82
2019-05-30T04:26:20.864Z,58.73
2019-05-30T04:28:50.206Z,58.95
2019-05-30T04:31:22.497Z,58.75
2019-05-30T04:33:50.556Z,58.37
2019-05-30T04:36:19.884Z,58.50
2019-05-30T04:38:49.217Z,58.57
2019-05-30T04:41:20.828Z,58.63
2019-05-30T04:43:49.582Z,58.67
2019-05-30T04:46:21.037Z,58.31
2019-05-30T04:48:49.939Z,58.32
2019-05-30T04:51:21.580Z,58.33
2019-05-30T04:53:50.671Z,58.35
2019-05-30T04:56:21.939Z,58.23
2019-05-30T04:58:51.319Z,58.36
2019-05-30T05:01:22.118Z,58.05
2019-05-30T05:03:51.879Z,58.21
2019-05-30T05:06:21.899Z,58.40
2019-05-30T05:08:51.537Z,58.42
2019-05-30T05:11:24.662Z,59.11
2019-05-30T05:13:51.883Z,58.48
2019-05-30T05:16:33.660Z,58.75
2019-05-30T05:18:52.479Z,58.76
2019-05-30T05:21:22.880Z,59.47
2019-05-30T05:23:52.417Z,59.71
2019-05-30T05:26:21.748Z,59.95
2019-05-30T05:28:51.090Z,59.83
2019-05-30T05:31:20.473Z,59.69
2019-05-30T05:33:56.567Z,59.55
2019-05-30T05:36:21.369Z,59.75
2019-05-30T05:38:50.705Z,59.65
2019-05-30T05:41:22.256Z,59.67
2019-05-30T05:43:51.301Z,59.62
2019-05-30T05:46:20.635Z,59.50
2019-05-30T05:48:50.243Z,59.42
2019-05-30T05:51:20.784Z,59.76
2019-05-30T05:53:50.191Z,59.79
2019-05-30T05:56:20.758Z,60.02
2019-05-30T05:58:50.137Z,59.95
2019-05-30T06:01:19.528Z,60.03
2019-05-30T06:03:48.854Z,60.16
2019-05-30T06:06:19.176Z,60.81
2019-05-30T06:08:48.658Z,61.62
2019-05-30T06:11:18.613Z,63.00
2019-05-30T06:13:48.102Z,63.48
2019-05-30T06:16:17.778Z,63.94
2019-05-30T06:18:47.238Z,64.67
2019-05-30T06:21:17.261Z,65.46
2019-05-30T06:23:46.635Z,65.51
2019-05-30T06:26:17.786Z,66.28
2019-05-30T06:28:47.581Z,66.91
2019-05-30T06:31:18.283Z,68.14
2019-05-30T06:33:47.635Z,70.07
2019-05-30T06:36:16.957Z,71.20
2019-05-30T06:38:46.284Z,71.19
2019-05-30T06:41:15.666Z,71.93
2019-05-30T06:43:44.987Z,71.79
2019-05-30T06:46:14.315Z,72.20
2019-05-30T06:48:43.661Z,72.35
2019-05-30T06:51:14.698Z,72.67
2019-05-30T06:53:44.256Z,72.75
2019-05-30T06:56:13.588Z,73.34
2019-05-30T06:58:48.738Z,73.42
2019-05-30T07:01:13.991Z,72.96
2019-05-30T07:03:43.519Z,73.46
2019-05-30T07:06:13.349Z,74.00
2019-05-30T07:08:42.843Z,74.69
2019-05-30T07:11:12.178Z,75.20
2019-05-30T07:13:41.502Z,75.67
2019-05-30T07:16:11.147Z,76.29
2019-05-30T07:18:40.762Z,76.89
2019-05-30T07:21:10.371Z,77.34
2019-05-30T07:23:39.982Z,77.50
2019-05-30T07:26:09.586Z,77.72
2019-05-30T07:28:38.921Z,78.32
2019-05-30T07:31:08.258Z,77.92
2019-05-30T07:33:37.592Z,77.70
2019-05-30T07:36:06.932Z,77.69
2019-05-30T07:38:36.602Z,77.49
2019-05-30T07:41:06.209Z,77.55
2019-05-30T07:43:35.613Z,77.52
2019-05-30T07:46:05.248Z,77.43
2019-05-30T07:48:34.582Z,77.24
2019-05-30T07:51:03.943Z,77.38
2019-05-30T07:53:33.537Z,76.89
2019-05-30T07:56:03.049Z,77.05
2019-05-30T07:58:33.373Z,77.08
2019-05-30T08:01:02.738Z,77.05
2019-05-30T08:03:34.721Z,76.80
2019-05-30T08:06:04.310Z,76.43
2019-05-30T08:08:33.944Z,76.31
2019-05-30T08:11:09.259Z,76.29
2019-05-30T08:13:35.275Z,76.07
2019-05-30T08:16:04.721Z,75.81
2019-05-30T08:18:34.018Z,75.28
2019-05-30T08:21:03.359Z,75.11
2019-05-30T08:23:32.686Z,74.75
2019-05-30T08:26:02.022Z,74.88
2019-05-30T08:28:32.220Z,74.29
2019-05-30T08:31:02.649Z,74.44
2019-05-30T08:33:33.599Z,74.00
2019-05-30T08:36:05.495Z,73.48
2019-05-30T08:38:35.330Z,72.73
2019-05-30T08:41:05.833Z,72.64
2019-05-30T08:43:35.574Z,72.45
2019-05-30T08:46:04.958Z,72.31
2019-05-30T08:48:34.561Z,72.01
2019-05-30T08:51:04.307Z,71.50
2019-05-30T08:53:34.365Z,71.15
2019-05-30T08:56:05.311Z,70.95
2019-05-30T08:58:34.660Z,71.15
2019-05-30T09:01:03.983Z,70.34
2019-05-30T09:03:33.311Z,70.41
2019-05-30T09:06:04.319Z,70.17
2019-05-30T09:08:33.832Z,70.19
2019-05-30T09:11:03.397Z,69.91
2019-05-30T09:13:32.727Z,69.65
2019-05-30T09:16:02.054Z,69.67
2019-05-30T09:18:31.392Z,69.70
2019-05-30T09:21:00.719Z,69.76
2019-05-30T09:23:30.274Z,69.70
2019-05-30T09:25:59.778Z,69.59
2019-05-30T09:28:29.107Z,69.45
2019-05-30T09:30:58.434Z,69.16
2019-05-30T09:33:27.763Z,68.93
2019-05-30T09:36:12.254Z,69.98
2019-05-30T09:38:28.124Z,68.72
2019-05-30T09:40:57.682Z,68.72
2019-05-30T09:43:27.021Z,68.89
2019-05-30T09:45:56.583Z,68.81
2019-05-30T09:48:25.991Z,69.03
2019-05-30T09:50:55.551Z,68.67
2019-05-30T09:53:24.882Z,68.71
2019-05-30T09:55:54.286Z,68.55
2019-05-30T09:58:24.150Z,68.76
2019-05-30T10:00:53.489Z,68.54
2019-05-30T10:03:22.814Z,68.32
2019-05-30T10:05:52.665Z,67.99
2019-05-30T10:08:23.051Z,68.04
2019-05-30T10:10:53.514Z,67.50
2019-05-30T10:13:23.022Z,66.94
2019-05-30T10:15:52.695Z,67.03
2019-05-30T10:18:21.999Z,67.37
2019-05-30T10:20:53.259Z,66.81
2019-05-30T10:23:22.482Z,67.16
2019-05-30T10:25:51.813Z,67.28
2019-05-30T10:28:21.143Z,67.37
2019-05-30T10:30:54.518Z,67.00
2019-05-30T10:33:22.689Z,66.84
2019-05-30T10:35:53.310Z,66.59
2019-05-30T10:38:22.846Z,66.20
2019-05-30T10:40:52.435Z,66.09
2019-05-30T10:43:21.791Z,66.05
2019-05-30T10:45:53.291Z,66.22
2019-05-30T10:48:22.708Z,66.23
2019-05-30T10:50:52.330Z,66.57
2019-05-30T10:53:21.647Z,66.83
2019-05-30T10:55:52.962Z,66.56
2019-05-30T10:58:22.341Z,66.39
2019-05-30T11:00:55.728Z,66.62
2019-05-30T11:03:25.874Z,66.39
2019-05-30T11:06:23.732Z,66.75
2019-05-30T11:08:54.772Z,66.48
2019-05-30T11:11:24.112Z,66.20
2019-05-30T11:13:53.468Z,66.37
2019-05-30T11:16:22.772Z,65.97
2019-05-30T11:18:56.087Z,65.97
2019-05-30T11:21:25.533Z,65.62
2019-05-30T11:23:54.882Z,65.43
2019-05-30T11:26:24.199Z,64.85
2019-05-30T11:28:54.788Z,65.51
2019-05-30T11:31:24.084Z,65.63
2019-05-30T11:33:54.982Z,65.04
2019-05-30T11:36:24.358Z,65.31
2019-05-30T11:38:53.767Z,65.48
2019-05-30T11:41:23.024Z,65.34
2019-05-30T11:43:53.544Z,65.44
2019-05-30T11:46:22.908Z,65.58
2019-05-30T11:48:52.244Z,65.55
2019-05-30T11:51:21.744Z,65.86
2019-05-30T11:53:51.818Z,65.79
2019-05-30T11:56:21.150Z,66.10
2019-05-30T11:58:50.523Z,66.28
2019-05-30T12:01:19.848Z,66.28
2019-05-30T12:03:50.481Z,66.36
2019-05-30T12:06:19.849Z,66.27
2019-05-30T12:08:49.245Z,66.83
2019-05-30T12:11:18.574Z,66.93
2019-05-30T12:13:47.911Z,66.86
2019-05-30T12:16:18.209Z,66.98
2019-05-30T12:18:47.788Z,67.24
2019-05-30T12:21:17.125Z,67.16
2019-05-30T12:23:46.463Z,67.25
2019-05-30T12:26:15.784Z,67.39
2019-05-30T12:28:45.357Z,67.16
2019-05-30T12:31:14.919Z,67.10
2019-05-30T12:33:44.277Z,67.67
2019-05-30T12:36:13.667Z,67.76
2019-05-30T12:38:42.999Z,67.81
2019-05-30T12:41:12.564Z,67.73
2019-05-30T12:43:41.889Z,67.88
2019-05-30T12:46:11.223Z,67.69
2019-05-30T12:48:40.547Z,67.82
2019-05-30T12:51:09.874Z,68.21
2019-05-30T12:53:40.980Z,67.98
2019-05-30T12:56:10.313Z,68.23
2019-05-30T12:58:41.179Z,68.53
2019-05-30T13:01:10.511Z,68.93
2019-05-30T13:03:39.902Z,68.82
2019-05-30T13:06:09.243Z,68.90
2019-05-30T13:08:38.564Z,68.69
2019-05-30T13:11:08.125Z,68.66
2019-05-30T13:13:37.454Z,68.69
2019-05-30T13:16:08.820Z,68.47
2019-05-30T13:18:38.125Z,68.66
2019-05-30T13:21:07.454Z,68.91
2019-05-30T13:23:36.817Z,68.59
2019-05-30T13:26:06.156Z,68.34
2019-05-30T13:28:36.449Z,68.09
2019-05-30T13:31:07.071Z,68.78
2019-05-30T13:33:38.603Z,67.88
2019-05-30T13:36:07.801Z,67.71
2019-05-30T13:38:37.357Z,67.63
2019-05-30T13:41:07.736Z,67.55
2019-05-30T13:43:38.553Z,67.47
2019-05-30T13:46:08.443Z,67.01
2019-05-30T13:48:37.798Z,67.16
2019-05-30T13:51:07.154Z,67.22
2019-05-30T13:53:36.692Z,66.78
2019-05-30T13:56:06.026Z,66.57
2019-05-30T13:58:35.358Z,66.55
2019-05-30T14:01:08.204Z,66.20
2019-05-30T14:03:35.711Z,66.30
2019-05-30T14:06:06.188Z,65.96
2019-05-30T14:08:41.634Z,65.75
2019-05-30T14:11:08.771Z,65.98
2019-05-30T14:13:38.100Z,65.89
2019-05-30T14:16:07.440Z,64.90
2019-05-30T14:18:36.802Z,64.37
2019-05-30T14:21:07.520Z,64.03
2019-05-30T14:23:37.197Z,63.55
2019-05-30T14:26:07.394Z,63.48
2019-05-30T14:28:37.024Z,62.83
2019-05-30T14:31:06.784Z,61.57
2019-05-30T14:33:37.139Z,61.71
2019-05-30T14:36:08.306Z,61.07
2019-05-30T14:38:37.725Z,60.84
2019-05-30T14:41:07.063Z,61.17
2019-05-30T14:43:36.461Z,60.54
2019-05-30T14:46:06.279Z,59.90
2019-05-30T14:48:35.912Z,60.16
2019-05-30T14:51:06.553Z,60.04
2019-05-30T14:53:35.888Z,60.01
2019-05-30T14:56:05.223Z,60.00
2019-05-30T14:58:34.552Z,59.93
2019-05-30T15:01:05.021Z,60.27
2019-05-30T15:03:34.621Z,60.29
2019-05-30T15:06:06.877Z,60.55
2019-05-30T15:08:35.057Z,60.72
2019-05-30T15:11:05.450Z,60.92
2019-05-30T15:13:34.798Z,60.56
2019-05-30T15:16:04.757Z,60.75
2019-05-30T15:18:34.033Z,60.88
2019-05-30T15:21:03.382Z,60.97
2019-05-30T15:23:32.718Z,61.32
2019-05-30T15:26:02.043Z,61.09
2019-05-30T15:28:31.377Z,60.71
2019-05-30T15:31:00.707Z,60.59
2019-05-30T15:33:30.042Z,60.33
2019-05-30T15:35:59.369Z,60.58
2019-05-30T15:38:28.941Z,59.90
2019-05-30T15:40:58.272Z,59.99
2019-05-30T15:43:27.610Z,59.83
2019-05-30T15:45:56.938Z,59.73
2019-05-30T15:48:26.275Z,59.68
2019-05-30T15:50:55.844Z,59.40
2019-05-30T15:53:25.179Z,59.21
2019-05-30T15:55:54.506Z,59.00
2019-05-30T15:58:24.016Z,58.82
2019-05-30T16:00:53.349Z,58.35
2019-05-30T16:03:22.671Z,57.88
2019-05-30T16:05:51.996Z,57.78
2019-05-30T16:08:21.343Z,57.64
2019-05-30T16:10:50.671Z,57.51
2019-05-30T16:13:20.006Z,57.50
2019-05-30T16:15:49.335Z,57.91
2019-05-30T16:18:19.810Z,57.89
2019-05-30T16:20:49.166Z,58.32
2019-05-30T16:23:18.829Z,58.63
2019-05-30T16:25:48.149Z,58.45
2019-05-30T16:28:17.836Z,58.56
2019-05-30T16:30:48.152Z,58.70
2019-05-30T16:33:18.006Z,58.71
2019-05-30T16:35:50.803Z,58.91
2019-05-30T16:38:20.477Z,58.90
2019-05-30T16:40:50.107Z,59.01
2019-05-30T16:43:20.377Z,58.82
2019-05-30T16:45:49.738Z,58.73
2019-05-30T16:48:20.460Z,58.63
2019-05-30T16:50:49.905Z,59.36
2019-05-30T16:53:22.287Z,59.35
2019-05-30T16:55:50.263Z,59.37
2019-05-30T16:58:20.289Z,59.34
2019-05-30T17:00:50.008Z,59.38
2019-05-30T17:03:19.810Z,59.47
2019-05-30T17:05:49.377Z,59.52
2019-05-30T17:08:20.035Z,59.48
2019-05-30T17:10:49.453Z,59.68
2019-05-30T17:13:19.610Z,59.47
2019-05-30T17:15:48.992Z,59.49
2019-05-30T17:18:20.252Z,59.39
2019-05-30T17:20:50.144Z,59.44
2019-05-30T17:23:20.620Z,59.54
2019-05-30T17:25:49.994Z,59.79
2019-05-30T17:28:20.309Z,59.65
2019-05-30T17:30:49.679Z,59.70
2019-05-30T17:33:20.728Z,59.68
2019-05-30T17:35:50.075Z,59.83
2019-05-30T17:38:20.513Z,59.56
2019-05-30T17:40:49.867Z,59.64
2019-05-30T17:43:21.017Z,59.85
2019-05-30T17:45:51.338Z,60.35
2019-05-30T17:48:21.466Z,60.27
2019-05-30T17:50:50.843Z,60.48
2019-05-30T17:53:20.175Z,60.51
2019-05-30T17:55:49.504Z,60.33
2019-05-30T17:58:20.517Z,60.32
2019-05-30T18:00:49.883Z,60.42
2019-05-30T18:03:20.394Z,60.52
2019-05-30T18:05:49.704Z,60.56
2019-05-30T18:08:19.027Z,60.68
2019-05-30T18:10:53.636Z,61.02
2019-05-30T18:13:20.903Z,61.04
2019-05-30T18:15:50.562Z,61.13
2019-05-30T18:18:21.059Z,61.15
2019-05-30T18:20:50.501Z,61.12
2019-05-30T18:23:21.309Z,61.14
2019-05-30T18:25:50.674Z,61.29
2019-05-30T18:28:20.009Z,61.42
2019-05-30T18:30:49.335Z,61.39
2019-05-30T18:33:18.748Z,61.49
2019-05-30T18:35:48.061Z,61.51
2019-05-30T18:38:17.393Z,61.64
2019-05-30T18:40:46.791Z,61.69
2019-05-30T18:43:16.146Z,61.73
2019-05-30T18:45:45.815Z,61.87
2019-05-30T18:48:15.558Z,62.07
2019-05-30T18:50:44.899Z,62.12
2019-05-30T18:53:14.226Z,62.02
2019-05-30T18:55:43.650Z,61.95
2019-05-30T18:58:13.285Z,62.04
2019-05-30T19:00:42.622Z,62.12
2019-05-30T19:03:11.955Z,62.16
2019-05-30T19:05:41.533Z,62.17
2019-05-30T19:08:10.860Z,62.23
2019-05-30T19:10:40.253Z,62.12
2019-05-30T19:13:09.583Z,62.22
2019-05-30T19:15:39.159Z,62.20
2019-05-30T19:18:09.419Z,62.18
2019-05-30T19:20:38.809Z,61.97
2019-05-30T19:23:08.389Z,62.03
2019-05-30T19:25:37.923Z,61.91
2019-05-30T19:28:07.231Z,61.78
2019-05-30T19:30:37.051Z,61.79
2019-05-30T19:33:06.916Z,61.70
2019-05-30T19:35:37.535Z,62.28
2019-05-30T19:38:07.554Z,63.07
2019-05-30T19:40:38.030Z,62.26
2019-05-30T19:43:07.424Z,61.75
2019-05-30T19:45:36.767Z,61.67
2019-05-30T19:48:06.097Z,61.70
2019-05-30T19:50:36.873Z,61.55
2019-05-30T19:53:06.205Z,61.58
2019-05-30T19:55:35.564Z,61.51
2019-05-30T19:58:06.008Z,61.52
2019-05-30T20:00:50.256Z,61.33
2019-05-30T20:03:06.604Z,61.38
2019-05-30T20:05:36.691Z,61.73
2019-05-30T20:08:06.107Z,61.76
2019-05-30T20:10:35.757Z,61.95
2019-05-30T20:13:05.393Z,61.88
2019-05-30T20:15:35.489Z,61.83
2019-05-30T20:18:04.901Z,61.82
2019-05-30T20:20:51.726Z,62.14
2019-05-30T20:23:05.507Z,62.09
2019-05-30T20:25:34.940Z,61.98
2019-05-30T20:28:04.980Z,62.18
2019-05-30T20:30:34.996Z,62.13
2019-05-30T20:33:04.520Z,62.15
2019-05-30T20:35:36.090Z,62.14
2019-05-30T20:38:04.945Z,62.09
2019-05-30T20:40:34.922Z,62.11
2019-05-30T20:43:04.386Z,62.12
2019-05-30T20:45:37.972Z,62.16
2019-05-30T20:48:04.973Z,62.24
2019-05-30T20:50:35.266Z,62.13
2019-05-30T20:53:04.667Z,62.33
2019-05-30T20:55:34.084Z,62.55
2019-05-30T20:58:03.482Z,62.42
2019-05-30T21:00:39.840Z,62.35
2019-05-30T21:03:09.463Z,62.52
2019-05-30T21:05:39.942Z,62.36
2019-05-30T21:08:09.273Z,62.31
2019-05-30T21:10:39.645Z,62.34
2019-05-30T21:13:08.974Z,62.33
2019-05-30T21:15:39.663Z,62.33
2019-05-30T21:18:09.026Z,62.25
2019-05-30T21:20:38.346Z,62.28
2019-05-30T21:23:07.688Z,62.24
2019-05-30T21:25:37.577Z,62.32
2019-05-30T21:28:08.103Z,62.45
2019-05-30T21:30:38.511Z,62.47
2019-05-30T21:33:08.270Z,62.27
2019-05-30T21:35:39.495Z,62.35
2019-05-30T21:38:09.092Z,62.29
2019-05-30T21:40:38.431Z,62.33
2019-05-30T21:43:08.969Z,62.41
2019-05-30T21:45:38.541Z,62.41
2019-05-30T21:48:08.171Z,62.46
2019-05-30T21:50:37.521Z,62.55
2019-05-30T21:53:06.858Z,62.60
2019-05-30T21:55:36.278Z,62.64
2019-05-30T21:58:06.067Z,62.67
2019-05-30T22:00:48.896Z,62.62
2019-05-30T22:03:19.908Z,62.54
2019-05-30T22:05:49.833Z,62.49
2019-05-30T22:08:20.336Z,62.53
2019-05-30T22:10:49.674Z,62.59
2019-05-30T22:13:18.991Z,62.54
2019-05-30T22:15:48.347Z,62.50
2019-05-30T22:18:17.665Z,62.57
2019-05-30T22:20:47.982Z,62.51
2019-05-30T22:23:17.476Z,62.94
2019-05-30T22:25:48.176Z,62.91
2019-05-30T22:28:17.883Z,63.29
2019-05-30T22:30:47.222Z,62.99
2019-05-30T22:33:16.553Z,63.30
2019-05-30T22:35:46.776Z,63.08
2019-05-30T22:38:16.194Z,63.08
2019-05-30T22:40:45.793Z,63.07
2019-05-30T22:43:24.760Z,63.04
2019-05-30T22:45:46.495Z,63.17
2019-05-30T22:48:16.085Z,63.13
2019-05-30T22:50:46.679Z,63.36
2019-05-30T22:53:17.219Z,63.29
2019-05-30T22:55:47.035Z,63.43
2019-05-30T22:58:16.467Z,63.46
2019-05-30T23:00:46.069Z,63.47
2019-05-30T23:03:15.518Z,63.46
2019-05-30T23:05:45.294Z,63.57
2019-05-30T23:08:14.757Z,63.47
2019-05-30T23:10:45.513Z,63.45
2019-05-30T23:13:15.013Z,63.63
2019-05-30T23:15:45.985Z,63.71
2019-05-30T23:18:15.399Z,63.85
2019-05-30T23:20:44.730Z,64.09
2019-05-30T23:23:14.063Z,64.18
2019-05-30T23:25:43.634Z,64.18
2019-05-30T23:28:13.966Z,64.45
2019-05-30T23:30:43.294Z,64.30
2019-05-30T23:33:12.627Z,64.43
2019-05-30T23:35:41.957Z,64.49
2019-05-30T23:38:12.260Z,64.74
2019-05-30T23:40:41.588Z,64.77
2019-05-30T23:43:10.916Z,64.82
2019-05-30T23:45:40.255Z,65.05
2019-05-30T23:48:09.585Z,65.28
2019-05-30T23:50:38.912Z,65.26
2019-05-30T23:53:08.243Z,65.21
2019-05-30T23:55:37.582Z,65.28
2019-05-30T23:58:06.908Z,65.24
